sensor_id;sensor_type;location;lat;lon;timestamp;P1;durP1;ratioP1;P2;durP2;ratioP2
52854;SDS011;38719;51.418;7.286;2023-05-07T00:00:11;11.98;;;7.65;;
52854;SDS011;38719;51.418;7.286;2023-05-07T00:02:41;15.02;;;7.25;;
52854;SDS011;38719;51.418;7.286;2023-05-07T00:05:11;10.98;;;6.68;;
52854;SDS011;38719;51.418;7.286;2023-05-07T00:07:40;9.93;;;6.90;;
52854;SDS011;38719;51.418;7.286;2023-05-07T00:10:08;10.93;;;7.78;;
52854;SDS011;38719;51.418;7.286;2023-05-07T00:12:39;13.15;;;6.85;;
52854;SDS011;38719;51.418;7.286;2023-05-07T00:15:08;9.10;;;6.53;;
52854;SDS011;38719;51.418;7.286;2023-05-07T00:17:36;13.60;;;7.00;;
52854;SDS011;38719;51.418;7.286;2023-05-07T00:20:04;17.40;;;6.88;;
52854;SDS011;38719;51.418;7.286;2023-05-07T00:22:32;10.45;;;6.75;;
52854;SDS011;38719;51.418;7.286;2023-05-07T00:25:01;9.30;;;6.97;;
52854;SDS011;38719;51.418;7.286;2023-05-07T00:27:28;11.18;;;7.20;;
52854;SDS011;38719;51.418;7.286;2023-05-07T00:29:56;11.70;;;7.28;;
52854;SDS011;38719;51.418;7.286;2023-05-07T00:32:24;11.02;;;7.28;;
52854;SDS011;38719;51.418;7.286;2023-05-07T00:34:51;14.23;;;7.95;;
52854;SDS011;38719;51.418;7.286;2023-05-07T00:37:19;14.35;;;7.38;;
52854;SDS011;38719;51.418;7.286;2023-05-07T00:39:46;12.73;;;7.78;;
52854;SDS011;38719;51.418;7.286;2023-05-07T00:42:15;14.18;;;7.50;;
52854;SDS011;38719;51.418;7.286;2023-05-07T00:44:43;11.32;;;7.72;;
52854;SDS011;38719;51.418;7.286;2023-05-07T00:47:10;11.65;;;7.75;;
52854;SDS011;38719;51.418;7.286;2023-05-07T00:49:39;13.45;;;7.93;;
52854;SDS011;38719;51.418;7.286;2023-05-07T00:52:11;10.50;;;7.90;;
52854;SDS011;38719;51.418;7.286;2023-05-07T00:54:41;10.23;;;7.68;;
52854;SDS011;38719;51.418;7.286;2023-05-07T00:57:09;12.52;;;7.78;;
52854;SDS011;38719;51.418;7.286;2023-05-07T00:59:39;14.15;;;7.93;;
52854;SDS011;38719;51.418;7.286;2023-05-07T01:02:07;12.60;;;8.35;;
52854;SDS011;38719;51.418;7.286;2023-05-07T01:04:34;9.93;;;8.40;;
52854;SDS011;38719;51.418;7.286;2023-05-07T01:07:03;12.55;;;8.02;;
52854;SDS011;38719;51.418;7.286;2023-05-07T01:09:32;15.73;;;8.23;;
52854;SDS011;38719;51.418;7.286;2023-05-07T01:12:01;16.30;;;8.82;;
52854;SDS011;38719;51.418;7.286;2023-05-07T01:14:30;11.55;;;8.52;;
52854;SDS011;38719;51.418;7.286;2023-05-07T01:17:00;13.43;;;9.25;;
52854;SDS011;38719;51.418;7.286;2023-05-07T01:19:28;13.82;;;8.93;;
52854;SDS011;38719;51.418;7.286;2023-05-07T01:21:59;13.13;;;8.00;;
52854;SDS011;38719;51.418;7.286;2023-05-07T01:24:31;13.25;;;7.95;;
52854;SDS011;38719;51.418;7.286;2023-05-07T01:26:59;12.20;;;8.45;;
52854;SDS011;38719;51.418;7.286;2023-05-07T01:29:28;15.90;;;8.90;;
52854;SDS011;38719;51.418;7.286;2023-05-07T01:31:56;11.40;;;7.78;;
52854;SDS011;38719;51.418;7.286;2023-05-07T01:34:27;16.58;;;8.55;;
52854;SDS011;38719;51.418;7.286;2023-05-07T01:36:57;14.13;;;9.07;;
52854;SDS011;38719;51.418;7.286;2023-05-07T01:39:28;12.73;;;8.50;;
52854;SDS011;38719;51.418;7.286;2023-05-07T01:41:58;16.42;;;8.77;;
52854;SDS011;38719;51.418;7.286;2023-05-07T01:44:26;13.02;;;8.50;;
52854;SDS011;38719;51.418;7.286;2023-05-07T01:46:55;13.48;;;8.00;;
52854;SDS011;38719;51.418;7.286;2023-05-07T01:49:23;13.68;;;7.47;;
52854;SDS011;38719;51.418;7.286;2023-05-07T01:51:51;11.63;;;7.55;;
52854;SDS011;38719;51.418;7.286;2023-05-07T01:54:19;10.77;;;8.07;;
52854;SDS011;38719;51.418;7.286;2023-05-07T01:56:53;11.93;;;8.13;;
52854;SDS011;38719;51.418;7.286;2023-05-07T01:59:22;13.75;;;8.60;;
52854;SDS011;38719;51.418;7.286;2023-05-07T02:01:50;13.75;;;8.02;;
52854;SDS011;38719;51.418;7.286;2023-05-07T02:04:18;9.95;;;7.60;;
52854;SDS011;38719;51.418;7.286;2023-05-07T02:06:45;12.23;;;7.13;;
52854;SDS011;38719;51.418;7.286;2023-05-07T02:09:13;13.48;;;7.63;;
52854;SDS011;38719;51.418;7.286;2023-05-07T02:11:44;15.48;;;7.57;;
52854;SDS011;38719;51.418;7.286;2023-05-07T02:14:11;8.85;;;7.20;;
52854;SDS011;38719;51.418;7.286;2023-05-07T02:16:40;10.50;;;7.57;;
52854;SDS011;38719;51.418;7.286;2023-05-07T02:19:08;12.18;;;6.82;;
52854;SDS011;38719;51.418;7.286;2023-05-07T02:21:35;12.95;;;7.82;;
52854;SDS011;38719;51.418;7.286;2023-05-07T02:24:03;12.13;;;7.72;;
52854;SDS011;38719;51.418;7.286;2023-05-07T02:26:30;12.35;;;7.32;;
52854;SDS011;38719;51.418;7.286;2023-05-07T02:28:58;12.80;;;8.23;;
52854;SDS011;38719;51.418;7.286;2023-05-07T02:31:26;11.75;;;8.15;;
52854;SDS011;38719;51.418;7.286;2023-05-07T02:33:54;15.15;;;7.97;;
52854;SDS011;38719;51.418;7.286;2023-05-07T02:36:22;12.10;;;8.02;;
52854;SDS011;38719;51.418;7.286;2023-05-07T02:38:49;9.70;;;7.85;;
52854;SDS011;38719;51.418;7.286;2023-05-07T02:41:17;11.73;;;8.70;;
52854;SDS011;38719;51.418;7.286;2023-05-07T02:43:44;11.00;;;8.55;;
52854;SDS011;38719;51.418;7.286;2023-05-07T02:46:12;11.13;;;7.50;;
52854;SDS011;38719;51.418;7.286;2023-05-07T02:48:39;13.43;;;7.78;;
52854;SDS011;38719;51.418;7.286;2023-05-07T02:51:08;12.93;;;8.13;;
52854;SDS011;38719;51.418;7.286;2023-05-07T02:53:36;13.32;;;8.50;;
52854;SDS011;38719;51.418;7.286;2023-05-07T02:56:04;10.90;;;7.72;;
52854;SDS011;38719;51.418;7.286;2023-05-07T02:58:32;12.85;;;7.88;;
52854;SDS011;38719;51.418;7.286;2023-05-07T03:00:59;8.18;;;6.78;;
52854;SDS011;38719;51.418;7.286;2023-05-07T03:03:27;8.40;;;6.55;;
52854;SDS011;38719;51.418;7.286;2023-05-07T03:05:54;9.30;;;7.10;;
52854;SDS011;38719;51.418;7.286;2023-05-07T03:08:23;9.52;;;7.03;;
52854;SDS011;38719;51.418;7.286;2023-05-07T03:10:51;12.82;;;7.72;;
52854;SDS011;38719;51.418;7.286;2023-05-07T03:13:19;9.18;;;6.63;;
52854;SDS011;38719;51.418;7.286;2023-05-07T03:15:46;9.40;;;7.15;;
52854;SDS011;38719;51.418;7.286;2023-05-07T03:18:14;13.10;;;7.60;;
52854;SDS011;38719;51.418;7.286;2023-05-07T03:20:41;12.98;;;8.23;;
52854;SDS011;38719;51.418;7.286;2023-05-07T03:23:09;8.85;;;7.40;;
52854;SDS011;38719;51.418;7.286;2023-05-07T03:25:38;11.27;;;7.47;;
52854;SDS011;38719;51.418;7.286;2023-05-07T03:28:06;14.95;;;7.20;;
52854;SDS011;38719;51.418;7.286;2023-05-07T03:30:33;9.25;;;6.70;;
52854;SDS011;38719;51.418;7.286;2023-05-07T03:33:01;11.73;;;7.18;;
52854;SDS011;38719;51.418;7.286;2023-05-07T03:35:28;9.75;;;7.53;;
52854;SDS011;38719;51.418;7.286;2023-05-07T03:37:59;9.27;;;6.28;;
52854;SDS011;38719;51.418;7.286;2023-05-07T03:40:29;9.98;;;6.43;;
52854;SDS011;38719;51.418;7.286;2023-05-07T03:42:58;11.38;;;6.85;;
52854;SDS011;38719;51.418;7.286;2023-05-07T03:45:26;7.90;;;6.82;;
52854;SDS011;38719;51.418;7.286;2023-05-07T03:47:54;9.15;;;6.80;;
52854;SDS011;38719;51.418;7.286;2023-05-07T03:50:21;8.45;;;6.43;;
52854;SDS011;38719;51.418;7.286;2023-05-07T03:52:49;13.75;;;7.80;;
52854;SDS011;38719;51.418;7.286;2023-05-07T03:55:16;21.05;;;7.95;;
52854;SDS011;38719;51.418;7.286;2023-05-07T03:57:44;11.82;;;8.32;;
52854;SDS011;38719;51.418;7.286;2023-05-07T04:00:13;13.23;;;7.90;;
52854;SDS011;38719;51.418;7.286;2023-05-07T04:02:41;11.60;;;8.93;;
52854;SDS011;38719;51.418;7.286;2023-05-07T04:05:09;12.45;;;8.48;;
52854;SDS011;38719;51.418;7.286;2023-05-07T04:07:36;10.90;;;7.60;;
52854;SDS011;38719;51.418;7.286;2023-05-07T04:10:04;9.95;;;7.60;;
52854;SDS011;38719;51.418;7.286;2023-05-07T04:12:32;12.38;;;8.10;;
52854;SDS011;38719;51.418;7.286;2023-05-07T04:15:00;13.07;;;7.85;;
52854;SDS011;38719;51.418;7.286;2023-05-07T04:17:29;11.68;;;7.90;;
52854;SDS011;38719;51.418;7.286;2023-05-07T04:19:56;11.65;;;8.15;;
52854;SDS011;38719;51.418;7.286;2023-05-07T04:22:24;8.73;;;7.75;;
52854;SDS011;38719;51.418;7.286;2023-05-07T04:24:51;14.05;;;8.38;;
52854;SDS011;38719;51.418;7.286;2023-05-07T04:27:19;10.43;;;7.95;;
52854;SDS011;38719;51.418;7.286;2023-05-07T04:29:47;11.73;;;7.63;;
52854;SDS011;38719;51.418;7.286;2023-05-07T04:32:14;9.55;;;7.78;;
52854;SDS011;38719;51.418;7.286;2023-05-07T04:34:43;13.95;;;8.18;;
52854;SDS011;38719;51.418;7.286;2023-05-07T04:37:11;10.90;;;8.88;;
52854;SDS011;38719;51.418;7.286;2023-05-07T04:39:38;13.77;;;9.05;;
52854;SDS011;38719;51.418;7.286;2023-05-07T04:42:06;12.05;;;8.85;;
52854;SDS011;38719;51.418;7.286;2023-05-07T04:44:34;13.55;;;9.18;;
52854;SDS011;38719;51.418;7.286;2023-05-07T04:47:03;13.88;;;9.32;;
52854;SDS011;38719;51.418;7.286;2023-05-07T04:49:30;18.65;;;9.52;;
52854;SDS011;38719;51.418;7.286;2023-05-07T04:51:59;12.38;;;9.35;;
52854;SDS011;38719;51.418;7.286;2023-05-07T04:54:27;14.18;;;9.88;;
52854;SDS011;38719;51.418;7.286;2023-05-07T04:56:54;14.23;;;9.10;;
52854;SDS011;38719;51.418;7.286;2023-05-07T04:59:22;11.00;;;8.95;;
52854;SDS011;38719;51.418;7.286;2023-05-07T05:01:49;12.57;;;8.68;;
52854;SDS011;38719;51.418;7.286;2023-05-07T05:04:17;12.85;;;8.65;;
52854;SDS011;38719;51.418;7.286;2023-05-07T05:06:44;10.18;;;8.60;;
52854;SDS011;38719;51.418;7.286;2023-05-07T05:09:13;13.68;;;8.38;;
52854;SDS011;38719;51.418;7.286;2023-05-07T05:11:42;11.65;;;7.75;;
52854;SDS011;38719;51.418;7.286;2023-05-07T05:14:09;11.30;;;8.18;;
52854;SDS011;38719;51.418;7.286;2023-05-07T05:16:37;9.57;;;7.72;;
52854;SDS011;38719;51.418;7.286;2023-05-07T05:19:04;11.38;;;7.18;;
52854;SDS011;38719;51.418;7.286;2023-05-07T05:21:32;11.30;;;7.47;;
52854;SDS011;38719;51.418;7.286;2023-05-07T05:23:59;8.75;;;6.90;;
52854;SDS011;38719;51.418;7.286;2023-05-07T05:26:28;10.75;;;6.90;;
52854;SDS011;38719;51.418;7.286;2023-05-07T05:28:56;9.73;;;6.70;;
52854;SDS011;38719;51.418;7.286;2023-05-07T05:31:23;11.82;;;6.82;;
52854;SDS011;38719;51.418;7.286;2023-05-07T05:33:51;10.13;;;6.50;;
52854;SDS011;38719;51.418;7.286;2023-05-07T05:36:18;7.60;;;6.32;;
52854;SDS011;38719;51.418;7.286;2023-05-07T05:38:46;11.32;;;6.38;;
52854;SDS011;38719;51.418;7.286;2023-05-07T05:41:13;6.05;;;5.45;;
52854;SDS011;38719;51.418;7.286;2023-05-07T05:43:42;9.30;;;6.07;;
52854;SDS011;38719;51.418;7.286;2023-05-07T05:46:10;7.40;;;5.93;;
52854;SDS011;38719;51.418;7.286;2023-05-07T05:48:38;7.93;;;6.05;;
52854;SDS011;38719;51.418;7.286;2023-05-07T05:51:06;8.82;;;5.78;;
52854;SDS011;38719;51.418;7.286;2023-05-07T05:53:33;7.63;;;5.65;;
52854;SDS011;38719;51.418;7.286;2023-05-07T05:56:01;7.40;;;4.88;;
52854;SDS011;38719;51.418;7.286;2023-05-07T05:58:28;6.75;;;5.43;;
52854;SDS011;38719;51.418;7.286;2023-05-07T06:00:57;6.25;;;5.25;;
52854;SDS011;38719;51.418;7.286;2023-05-07T06:03:25;6.25;;;4.93;;
52854;SDS011;38719;51.418;7.286;2023-05-07T06:05:53;6.60;;;5.45;;
52854;SDS011;38719;51.418;7.286;2023-05-07T06:08:20;5.93;;;4.80;;
52854;SDS011;38719;51.418;7.286;2023-05-07T06:10:48;5.85;;;5.05;;
52854;SDS011;38719;51.418;7.286;2023-05-07T06:13:15;7.78;;;5.25;;
52854;SDS011;38719;51.418;7.286;2023-05-07T06:15:43;10.68;;;5.15;;
52854;SDS011;38719;51.418;7.286;2023-05-07T06:18:12;7.55;;;5.00;;
52854;SDS011;38719;51.418;7.286;2023-05-07T06:20:40;7.43;;;5.07;;
52854;SDS011;38719;51.418;7.286;2023-05-07T06:23:07;10.25;;;5.22;;
52854;SDS011;38719;51.418;7.286;2023-05-07T06:25:35;5.47;;;4.53;;
52854;SDS011;38719;51.418;7.286;2023-05-07T06:28:03;8.50;;;5.10;;
52854;SDS011;38719;51.418;7.286;2023-05-07T06:30:30;5.65;;;4.47;;
52854;SDS011;38719;51.418;7.286;2023-05-07T06:32:58;10.88;;;5.32;;
52854;SDS011;38719;51.418;7.286;2023-05-07T06:35:27;7.45;;;5.13;;
52854;SDS011;38719;51.418;7.286;2023-05-07T06:37:55;5.63;;;4.28;;
52854;SDS011;38719;51.418;7.286;2023-05-07T06:40:22;5.90;;;4.30;;
52854;SDS011;38719;51.418;7.286;2023-05-07T06:42:50;7.50;;;4.60;;
52854;SDS011;38719;51.418;7.286;2023-05-07T06:45:18;6.10;;;4.65;;
52854;SDS011;38719;51.418;7.286;2023-05-07T06:47:46;4.45;;;4.00;;
52854;SDS011;38719;51.418;7.286;2023-05-07T06:50:14;6.78;;;4.55;;
52854;SDS011;38719;51.418;7.286;2023-05-07T06:52:44;6.72;;;4.32;;
52854;SDS011;38719;51.418;7.286;2023-05-07T06:55:11;7.97;;;4.20;;
52854;SDS011;38719;51.418;7.286;2023-05-07T06:57:39;5.38;;;4.22;;
52854;SDS011;38719;51.418;7.286;2023-05-07T07:00:07;7.88;;;3.90;;
52854;SDS011;38719;51.418;7.286;2023-05-07T07:02:36;5.50;;;4.35;;
52854;SDS011;38719;51.418;7.286;2023-05-07T07:05:04;5.78;;;3.97;;
52854;SDS011;38719;51.418;7.286;2023-05-07T07:07:33;5.78;;;3.55;;
52854;SDS011;38719;51.418;7.286;2023-05-07T07:10:02;9.27;;;3.80;;
52854;SDS011;38719;51.418;7.286;2023-05-07T07:12:30;6.32;;;3.80;;
52854;SDS011;38719;51.418;7.286;2023-05-07T07:14:58;6.20;;;3.38;;
52854;SDS011;38719;51.418;7.286;2023-05-07T07:17:26;5.25;;;3.58;;
52854;SDS011;38719;51.418;7.286;2023-05-07T07:19:53;5.00;;;3.50;;
52854;SDS011;38719;51.418;7.286;2023-05-07T07:22:21;4.85;;;3.83;;
52854;SDS011;38719;51.418;7.286;2023-05-07T07:24:48;7.78;;;3.58;;
52854;SDS011;38719;51.418;7.286;2023-05-07T07:27:18;4.65;;;3.95;;
52854;SDS011;38719;51.418;7.286;2023-05-07T07:29:46;5.43;;;3.45;;
52854;SDS011;38719;51.418;7.286;2023-05-07T07:32:13;5.40;;;3.50;;
52854;SDS011;38719;51.418;7.286;2023-05-07T07:34:41;4.45;;;3.13;;
52854;SDS011;38719;51.418;7.286;2023-05-07T07:37:09;3.42;;;3.00;;
52854;SDS011;38719;51.418;7.286;2023-05-07T07:39:37;4.90;;;3.33;;
52854;SDS011;38719;51.418;7.286;2023-05-07T07:42:04;5.25;;;3.30;;
52854;SDS011;38719;51.418;7.286;2023-05-07T07:44:33;4.30;;;3.17;;
52854;SDS011;38719;51.418;7.286;2023-05-07T07:47:01;3.80;;;3.40;;
52854;SDS011;38719;51.418;7.286;2023-05-07T07:49:29;4.40;;;3.58;;
52854;SDS011;38719;51.418;7.286;2023-05-07T07:51:57;6.32;;;3.45;;
52854;SDS011;38719;51.418;7.286;2023-05-07T07:54:25;7.45;;;3.25;;
52854;SDS011;38719;51.418;7.286;2023-05-07T07:56:53;4.63;;;3.33;;
52854;SDS011;38719;51.418;7.286;2023-05-07T07:59:20;5.18;;;3.00;;
52854;SDS011;38719;51.418;7.286;2023-05-07T08:01:49;4.72;;;3.15;;
52854;SDS011;38719;51.418;7.286;2023-05-07T08:04:20;4.90;;;3.42;;
52854;SDS011;38719;51.418;7.286;2023-05-07T08:06:48;9.52;;;3.75;;
52854;SDS011;38719;51.418;7.286;2023-05-07T08:12:57;6.82;;;4.22;;
52854;SDS011;38719;51.418;7.286;2023-05-07T08:15:25;5.78;;;3.60;;
52854;SDS011;38719;51.418;7.286;2023-05-07T08:17:54;6.20;;;3.53;;
52854;SDS011;38719;51.418;7.286;2023-05-07T08:20:23;6.13;;;3.30;;
52854;SDS011;38719;51.418;7.286;2023-05-07T08:22:51;5.00;;;3.40;;
52854;SDS011;38719;51.418;7.286;2023-05-07T08:25:21;3.35;;;3.00;;
52854;SDS011;38719;51.418;7.286;2023-05-07T08:27:48;4.18;;;3.20;;
52854;SDS011;38719;51.418;7.286;2023-05-07T08:30:16;4.30;;;3.03;;
52854;SDS011;38719;51.418;7.286;2023-05-07T08:32:43;4.85;;;3.13;;
52854;SDS011;38719;51.418;7.286;2023-05-07T08:35:12;6.07;;;3.40;;
52854;SDS011;38719;51.418;7.286;2023-05-07T08:37:40;7.43;;;3.65;;
52854;SDS011;38719;51.418;7.286;2023-05-07T08:40:08;6.93;;;4.05;;
52854;SDS011;38719;51.418;7.286;2023-05-07T08:42:39;9.45;;;3.97;;
52854;SDS011;38719;51.418;7.286;2023-05-07T08:45:08;7.47;;;4.30;;
52854;SDS011;38719;51.418;7.286;2023-05-07T08:47:40;4.90;;;3.20;;
52854;SDS011;38719;51.418;7.286;2023-05-07T08:50:12;5.88;;;3.30;;
52854;SDS011;38719;51.418;7.286;2023-05-07T08:52:40;6.13;;;3.42;;
52854;SDS011;38719;51.418;7.286;2023-05-07T08:55:08;9.25;;;3.65;;
52854;SDS011;38719;51.418;7.286;2023-05-07T08:57:37;4.28;;;2.85;;
52854;SDS011;38719;51.418;7.286;2023-05-07T09:00:06;5.50;;;3.22;;
52854;SDS011;38719;51.418;7.286;2023-05-07T09:02:34;5.32;;;3.65;;
52854;SDS011;38719;51.418;7.286;2023-05-07T09:05:03;5.38;;;3.58;;
52854;SDS011;38719;51.418;7.286;2023-05-07T09:07:32;4.55;;;3.38;;
52854;SDS011;38719;51.418;7.286;2023-05-07T09:10:00;5.20;;;3.65;;
52854;SDS011;38719;51.418;7.286;2023-05-07T09:12:28;5.47;;;3.60;;
52854;SDS011;38719;51.418;7.286;2023-05-07T09:14:56;6.53;;;3.20;;
52854;SDS011;38719;51.418;7.286;2023-05-07T09:17:24;3.75;;;3.08;;
52854;SDS011;38719;51.418;7.286;2023-05-07T09:19:52;8.60;;;3.10;;
52854;SDS011;38719;51.418;7.286;2023-05-07T09:22:20;8.30;;;3.00;;
52854;SDS011;38719;51.418;7.286;2023-05-07T09:24:49;7.07;;;3.10;;
52854;SDS011;38719;51.418;7.286;2023-05-07T09:27:17;4.80;;;3.13;;
52854;SDS011;38719;51.418;7.286;2023-05-07T09:29:45;4.97;;;3.15;;
52854;SDS011;38719;51.418;7.286;2023-05-07T09:32:13;10.77;;;3.00;;
52854;SDS011;38719;51.418;7.286;2023-05-07T09:34:41;3.95;;;2.80;;
52854;SDS011;38719;51.418;7.286;2023-05-07T09:37:10;2.50;;;2.30;;
52854;SDS011;38719;51.418;7.286;2023-05-07T09:39:39;5.72;;;2.80;;
52854;SDS011;38719;51.418;7.286;2023-05-07T09:42:09;4.97;;;2.90;;
52854;SDS011;38719;51.418;7.286;2023-05-07T09:44:37;4.75;;;2.67;;
52854;SDS011;38719;51.418;7.286;2023-05-07T09:47:05;4.40;;;3.25;;
52854;SDS011;38719;51.418;7.286;2023-05-07T09:49:34;4.65;;;3.05;;
52854;SDS011;38719;51.418;7.286;2023-05-07T09:52:03;4.97;;;2.63;;
52854;SDS011;38719;51.418;7.286;2023-05-07T09:54:35;7.10;;;2.50;;
52854;SDS011;38719;51.418;7.286;2023-05-07T09:57:04;9.40;;;3.22;;
52854;SDS011;38719;51.418;7.286;2023-05-07T09:59:34;2.95;;;2.65;;
52854;SDS011;38719;51.418;7.286;2023-05-07T10:02:04;6.35;;;2.50;;
52854;SDS011;38719;51.418;7.286;2023-05-07T10:04:32;3.70;;;2.42;;
52854;SDS011;38719;51.418;7.286;2023-05-07T10:07:00;5.28;;;3.30;;
52854;SDS011;38719;51.418;7.286;2023-05-07T10:09:30;6.00;;;3.90;;
52854;SDS011;38719;51.418;7.286;2023-05-07T10:11:58;8.90;;;4.05;;
52854;SDS011;38719;51.418;7.286;2023-05-07T10:14:26;8.77;;;4.60;;
52854;SDS011;38719;51.418;7.286;2023-05-07T10:16:56;5.50;;;4.30;;
52854;SDS011;38719;51.418;7.286;2023-05-07T10:19:24;6.50;;;4.25;;
52854;SDS011;38719;51.418;7.286;2023-05-07T10:21:54;5.68;;;4.50;;
52854;SDS011;38719;51.418;7.286;2023-05-07T10:24:25;5.53;;;4.10;;
52854;SDS011;38719;51.418;7.286;2023-05-07T10:26:53;5.82;;;4.55;;
52854;SDS011;38719;51.418;7.286;2023-05-07T10:29:27;6.68;;;4.53;;
52854;SDS011;38719;51.418;7.286;2023-05-07T10:32:07;5.28;;;4.18;;
52854;SDS011;38719;51.418;7.286;2023-05-07T10:34:47;6.05;;;4.78;;
52854;SDS011;38719;51.418;7.286;2023-05-07T10:37:18;7.05;;;4.70;;
52854;SDS011;38719;51.418;7.286;2023-05-07T10:39:45;7.93;;;4.28;;
52854;SDS011;38719;51.418;7.286;2023-05-07T10:42:14;12.30;;;4.72;;
52854;SDS011;38719;51.418;7.286;2023-05-07T10:44:42;8.52;;;4.40;;
52854;SDS011;38719;51.418;7.286;2023-05-07T10:47:11;6.70;;;5.00;;
52854;SDS011;38719;51.418;7.286;2023-05-07T10:52:45;10.60;;;4.47;;
52854;SDS011;38719;51.418;7.286;2023-05-07T10:55:34;4.80;;;4.22;;
52854;SDS011;38719;51.418;7.286;2023-05-07T11:00:57;5.70;;;4.22;;
52854;SDS011;38719;51.418;7.286;2023-05-07T11:03:26;8.20;;;4.38;;
52854;SDS011;38719;51.418;7.286;2023-05-07T11:06:11;5.85;;;3.92;;
52854;SDS011;38719;51.418;7.286;2023-05-07T11:17:12;8.25;;;4.38;;
52854;SDS011;38719;51.418;7.286;2023-05-07T11:19:49;8.20;;;3.90;;
52854;SDS011;38719;51.418;7.286;2023-05-07T11:22:36;9.00;;;3.90;;
52854;SDS011;38719;51.418;7.286;2023-05-07T11:25:06;4.90;;;3.53;;
52854;SDS011;38719;51.418;7.286;2023-05-07T11:27:36;3.90;;;3.30;;
52854;SDS011;38719;51.418;7.286;2023-05-07T11:30:04;5.05;;;3.67;;
52854;SDS011;38719;51.418;7.286;2023-05-07T11:32:33;3.70;;;3.28;;
52854;SDS011;38719;51.418;7.286;2023-05-07T11:35:00;5.03;;;3.20;;
52854;SDS011;38719;51.418;7.286;2023-05-07T11:37:28;5.43;;;3.95;;
52854;SDS011;38719;51.418;7.286;2023-05-07T11:40:03;7.50;;;3.90;;
52854;SDS011;38719;51.418;7.286;2023-05-07T11:42:33;5.85;;;3.90;;
52854;SDS011;38719;51.418;7.286;2023-05-07T11:45:05;6.22;;;4.10;;
52854;SDS011;38719;51.418;7.286;2023-05-07T11:47:35;5.93;;;3.95;;
52854;SDS011;38719;51.418;7.286;2023-05-07T11:50:04;6.78;;;4.20;;
52854;SDS011;38719;51.418;7.286;2023-05-07T11:52:33;5.32;;;4.15;;
52854;SDS011;38719;51.418;7.286;2023-05-07T11:55:02;7.72;;;5.05;;
52854;SDS011;38719;51.418;7.286;2023-05-07T11:57:32;5.82;;;4.53;;
52854;SDS011;38719;51.418;7.286;2023-05-07T12:00:00;9.43;;;5.18;;
52854;SDS011;38719;51.418;7.286;2023-05-07T12:02:31;7.20;;;5.15;;
52854;SDS011;38719;51.418;7.286;2023-05-07T12:05:01;10.90;;;5.40;;
52854;SDS011;38719;51.418;7.286;2023-05-07T12:07:28;7.45;;;5.35;;
52854;SDS011;38719;51.418;7.286;2023-05-07T12:09:57;7.28;;;4.88;;
52854;SDS011;38719;51.418;7.286;2023-05-07T12:12:25;9.25;;;5.40;;
52854;SDS011;38719;51.418;7.286;2023-05-07T12:14:53;7.43;;;5.63;;
52854;SDS011;38719;51.418;7.286;2023-05-07T12:17:21;8.88;;;5.85;;
52854;SDS011;38719;51.418;7.286;2023-05-07T12:19:50;6.65;;;5.40;;
52854;SDS011;38719;51.418;7.286;2023-05-07T12:22:19;7.15;;;6.00;;
52854;SDS011;38719;51.418;7.286;2023-05-07T12:24:47;11.57;;;5.47;;
52854;SDS011;38719;51.418;7.286;2023-05-07T12:27:16;12.68;;;6.00;;
52854;SDS011;38719;51.418;7.286;2023-05-07T12:29:44;6.50;;;5.15;;
52854;SDS011;38719;51.418;7.286;2023-05-07T12:32:15;7.75;;;5.55;;
52854;SDS011;38719;51.418;7.286;2023-05-07T12:34:43;10.65;;;5.43;;
52854;SDS011;38719;51.418;7.286;2023-05-07T12:37:12;8.63;;;5.10;;
52854;SDS011;38719;51.418;7.286;2023-05-07T12:39:44;8.13;;;5.28;;
52854;SDS011;38719;51.418;7.286;2023-05-07T12:42:14;8.23;;;5.20;;
52854;SDS011;38719;51.418;7.286;2023-05-07T12:44:43;9.82;;;5.82;;
52854;SDS011;38719;51.418;7.286;2023-05-07T12:47:13;8.85;;;5.53;;
52854;SDS011;38719;51.418;7.286;2023-05-07T12:49:42;8.00;;;6.18;;
52854;SDS011;38719;51.418;7.286;2023-05-07T12:52:13;8.43;;;5.72;;
52854;SDS011;38719;51.418;7.286;2023-05-07T12:54:41;6.28;;;5.30;;
52854;SDS011;38719;51.418;7.286;2023-05-07T12:57:09;11.07;;;5.38;;
52854;SDS011;38719;51.418;7.286;2023-05-07T12:59:37;6.25;;;4.90;;
52854;SDS011;38719;51.418;7.286;2023-05-07T13:02:07;7.65;;;4.68;;
52854;SDS011;38719;51.418;7.286;2023-05-07T13:04:36;6.40;;;5.25;;
52854;SDS011;38719;51.418;7.286;2023-05-07T13:07:03;11.18;;;5.43;;
52854;SDS011;38719;51.418;7.286;2023-05-07T13:09:32;6.63;;;4.85;;
52854;SDS011;38719;51.418;7.286;2023-05-07T13:12:01;6.35;;;4.82;;
52854;SDS011;38719;51.418;7.286;2023-05-07T13:14:28;6.43;;;4.95;;
52854;SDS011;38719;51.418;7.286;2023-05-07T13:16:56;6.88;;;4.95;;
52854;SDS011;38719;51.418;7.286;2023-05-07T13:19:23;7.53;;;4.78;;
52854;SDS011;38719;51.418;7.286;2023-05-07T13:21:51;11.25;;;5.55;;
52854;SDS011;38719;51.418;7.286;2023-05-07T13:24:18;9.13;;;5.47;;
52854;SDS011;38719;51.418;7.286;2023-05-07T13:26:47;7.70;;;5.25;;
52854;SDS011;38719;51.418;7.286;2023-05-07T13:29:16;6.68;;;5.30;;
52854;SDS011;38719;51.418;7.286;2023-05-07T13:31:43;9.18;;;5.10;;
52854;SDS011;38719;51.418;7.286;2023-05-07T13:34:13;6.88;;;5.22;;
52854;SDS011;38719;51.418;7.286;2023-05-07T13:36:41;7.43;;;5.38;;
52854;SDS011;38719;51.418;7.286;2023-05-07T13:39:09;9.13;;;6.63;;
52854;SDS011;38719;51.418;7.286;2023-05-07T13:41:36;7.15;;;5.47;;
52854;SDS011;38719;51.418;7.286;2023-05-07T13:44:05;9.07;;;5.05;;
52854;SDS011;38719;51.418;7.286;2023-05-07T13:46:33;9.20;;;6.30;;
52854;SDS011;38719;51.418;7.286;2023-05-07T13:49:00;7.88;;;5.55;;
52854;SDS011;38719;51.418;7.286;2023-05-07T13:51:28;7.95;;;5.50;;
52854;SDS011;38719;51.418;7.286;2023-05-07T13:53:56;8.02;;;5.35;;
52854;SDS011;38719;51.418;7.286;2023-05-07T13:56:24;8.43;;;5.32;;
52854;SDS011;38719;51.418;7.286;2023-05-07T13:58:52;7.78;;;5.47;;
52854;SDS011;38719;51.418;7.286;2023-05-07T14:01:27;11.07;;;6.07;;
52854;SDS011;38719;51.418;7.286;2023-05-07T14:03:55;8.85;;;5.78;;
52854;SDS011;38719;51.418;7.286;2023-05-07T14:06:23;11.50;;;6.00;;
52854;SDS011;38719;51.418;7.286;2023-05-07T14:08:51;6.90;;;5.65;;
52854;SDS011;38719;51.418;7.286;2023-05-07T14:11:18;9.30;;;6.10;;
52854;SDS011;38719;51.418;7.286;2023-05-07T14:13:46;9.50;;;6.63;;
52854;SDS011;38719;51.418;7.286;2023-05-07T14:16:14;8.65;;;6.70;;
52854;SDS011;38719;51.418;7.286;2023-05-07T14:18:43;9.25;;;6.57;;
52854;SDS011;38719;51.418;7.286;2023-05-07T14:21:11;9.10;;;7.07;;
52854;SDS011;38719;51.418;7.286;2023-05-07T14:23:39;9.00;;;6.70;;
52854;SDS011;38719;51.418;7.286;2023-05-07T14:26:06;9.63;;;5.82;;
52854;SDS011;38719;51.418;7.286;2023-05-07T14:28:34;11.45;;;6.82;;
52854;SDS011;38719;51.418;7.286;2023-05-07T14:31:02;10.40;;;6.03;;
52854;SDS011;38719;51.418;7.286;2023-05-07T14:33:29;11.23;;;6.22;;
52854;SDS011;38719;51.418;7.286;2023-05-07T14:35:58;13.02;;;7.03;;
52854;SDS011;38719;51.418;7.286;2023-05-07T14:38:26;9.20;;;6.28;;
52854;SDS011;38719;51.418;7.286;2023-05-07T14:40:53;9.30;;;6.70;;
52854;SDS011;38719;51.418;7.286;2023-05-07T14:43:23;8.93;;;6.78;;
52854;SDS011;38719;51.418;7.286;2023-05-07T14:45:50;10.18;;;6.70;;
52854;SDS011;38719;51.418;7.286;2023-05-07T14:48:19;8.38;;;6.95;;
52854;SDS011;38719;51.418;7.286;2023-05-07T14:50:46;10.63;;;8.18;;
52854;SDS011;38719;51.418;7.286;2023-05-07T14:53:16;10.52;;;8.02;;
52854;SDS011;38719;51.418;7.286;2023-05-07T14:55:43;10.90;;;7.43;;
52854;SDS011;38719;51.418;7.286;2023-05-07T14:58:11;8.15;;;6.22;;
52854;SDS011;38719;51.418;7.286;2023-05-07T15:00:38;8.95;;;5.90;;
52854;SDS011;38719;51.418;7.286;2023-05-07T15:03:07;9.43;;;5.13;;
52854;SDS011;38719;51.418;7.286;2023-05-07T15:05:35;6.68;;;4.93;;
52854;SDS011;38719;51.418;7.286;2023-05-07T15:08:04;6.53;;;4.95;;